Terminal Aerodrome Forecast
Issued by NWS

Home | Current Version | Previous Version | Text Only | Print | Product List | Glossary Off
Versions: 1 2 3 4 5 6 7 8 9 10 11 12 13 14 15

000
FTUS43 KMPX 221120
TAFRWF
TAF
KRWF 221120Z 2212/2312 31013G20KT P6SM SKC
     FM221400 31019G27KT P6SM SKC
     FM230100 32009KT P6SM SKC
     FM230600 32005KT P6SM SKC=

USA.gov is the U.S. government's official web portal to all federal, state and local government web resources and services.